MMMZ/MZT METAR and TAF weather

Enter ICAO airport designator
Station Type Date Time Source
MMMZ METAR 2019/08/22 04:44 UTC NOAA

MMMZ 220444Z 00000KT 8SM -TSRA SCT015 BKN025CB OVC090 28/27 A2987 RMK 60005 8/96/ FQTS LTGIC ALQDS


Station Type Date Time Source
MMMZ Decoded METAR 2019/08/22 04:44 UTC NOAA

Station name not available
Aug 22, 2019 - 12:44 AM EDT / 2019.08.22 0444 UTC
Wind: Calm:0
Visibility: 8 mile(s):0
Sky conditions: overcast
Weather: light rain with thunder; Cumulonimbus clouds, lightning observed
Temperature: 82 F (28 C)
Dew Point: 80 F (27 C)
Relative Humidity: 94%
Pressure (altimeter): 29.87 in. Hg (1011 hPa)
ob: MMMZ 220444Z 00000KT 8SM -TSRA SCT015 BKN025CB OVC090 28/27 A2987 RMK 60005 8/96/ FQTS LTGIC ALQDS
cycle: 4

Station Type Date Time Source
MMMZ TAF 2019/08/22 06:30 UTC NOAA

TAF MMMZ 220323Z 2206/2312 34005KT 5SM -RA BKN030 BKN090 BKN250 TX31/2222Z TN24/2212Z
TEMPO 2206/2210 3SM TSRA BKN015CB
FM221200 04005KT P6SM SCT030 BKN090 BKN250
TEMPO 2212/2216 5SM -RA BKN030
FM221800 23010KT P6SM BKN030 BKN090 OVC250
TEMPO 2222/2302 5SM TSRA BKN020CB

Example: see airport list